createdAt,value
2018-07-16T00:01:59.734Z,27.61
2018-07-16T00:04:30.392Z,27.43
2018-07-16T00:07:01.044Z,27.41
2018-07-16T00:09:32.009Z,27.44
2018-07-16T00:12:02.454Z,27.44
2018-07-16T00:14:36.312Z,27.25
2018-07-16T00:17:06.794Z,27.17
2018-07-16T00:19:39.412Z,27.13
2018-07-16T00:22:10.034Z,27.16
2018-07-16T00:24:42.206Z,27.58
2018-07-16T00:27:12.454Z,27.91
2018-07-16T00:29:44.059Z,27.83
2018-07-16T00:32:16.261Z,27.68
2018-07-16T00:34:49.729Z,27.47
2018-07-16T00:37:22.373Z,27.48
2018-07-16T00:39:54.079Z,27.69
2018-07-16T00:42:25.370Z,27.66
2018-07-16T00:44:58.280Z,27.58
2018-07-16T00:47:30.628Z,27.60
2018-07-16T00:50:03.883Z,27.54
2018-07-16T00:52:35.074Z,27.60
2018-07-16T00:55:06.272Z,27.59
2018-07-16T00:57:37.409Z,27.51
2018-07-16T01:00:08.602Z,27.49
2018-07-16T01:02:39.776Z,27.67
2018-07-16T01:05:10.399Z,27.84
2018-07-16T01:07:41.553Z,28.01
2018-07-16T01:10:13.309Z,27.85
2018-07-16T01:12:45.784Z,27.76
2018-07-16T01:15:16.929Z,27.66
2018-07-16T01:17:55.160Z,27.65
2018-07-16T01:20:26.645Z,27.86
2018-07-16T01:22:58.285Z,27.96
2018-07-16T01:25:29.752Z,27.71
2018-07-16T01:28:00.963Z,27.72
2018-07-16T01:30:32.229Z,27.69
2018-07-16T01:33:03.356Z,27.56
2018-07-16T01:35:34.461Z,27.67
2018-07-16T01:38:05.550Z,27.89
2018-07-16T01:40:36.948Z,27.91
2018-07-16T01:43:08.052Z,27.87
2018-07-16T01:45:39.153Z,27.87
2018-07-16T01:48:11.120Z,28.01
2018-07-16T01:50:42.321Z,28.16
2018-07-16T01:53:13.936Z,28.07
2018-07-16T01:55:52.176Z,28.05
2018-07-16T01:58:23.583Z,28.20
2018-07-16T02:00:57.584Z,28.24
2018-07-16T02:03:30.749Z,27.77
2018-07-16T02:06:01.849Z,27.75
2018-07-16T02:08:33.008Z,27.69
2018-07-16T02:11:04.472Z,27.63
2018-07-16T02:13:36.260Z,27.54
2018-07-16T02:16:10.608Z,27.42
2018-07-16T02:18:41.752Z,27.31
2018-07-16T02:21:12.867Z,27.24
2018-07-16T02:23:44.043Z,27.17
2018-07-16T02:26:15.555Z,27.14
2018-07-16T02:28:45.818Z,27.17
2018-07-16T02:31:18.194Z,27.06
2018-07-16T02:33:50.244Z,27.03
2018-07-16T02:36:22.413Z,27.03
2018-07-16T02:38:54.070Z,27.14
2018-07-16T02:41:24.390Z,27.28
2018-07-16T02:43:55.690Z,27.19
2018-07-16T02:46:27.166Z,27.14
2018-07-16T02:48:57.621Z,27.31
2018-07-16T02:51:29.425Z,27.51
2018-07-16T02:54:02.780Z,27.30
2018-07-16T02:56:35.697Z,27.49
2018-07-16T02:59:08.258Z,27.62
2018-07-16T03:01:39.396Z,27.58
2018-07-16T03:04:11.451Z,27.75
2018-07-16T03:06:42.600Z,27.79
2018-07-16T03:09:13.629Z,27.87
2018-07-16T03:11:44.883Z,27.81
2018-07-16T03:14:16.806Z,27.77
2018-07-16T03:16:48.229Z,27.71
2018-07-16T03:19:19.433Z,27.69
2018-07-16T03:21:49.777Z,27.77
2018-07-16T03:24:20.124Z,27.99
2018-07-16T03:26:51.339Z,28.03
2018-07-16T03:29:25.246Z,27.89
2018-07-16T03:31:57.554Z,27.76
2018-07-16T03:34:29.078Z,27.78
2018-07-16T03:37:00.283Z,27.86
2018-07-16T03:39:32.880Z,28.15
2018-07-16T03:42:04.422Z,28.22
2018-07-16T03:44:36.629Z,28.27
2018-07-16T03:47:08.284Z,28.15
2018-07-16T03:49:39.385Z,28.18
2018-07-16T03:52:15.330Z,28.08
2018-07-16T03:54:46.048Z,27.88
2018-07-16T03:57:18.128Z,27.85
2018-07-16T03:59:48.870Z,27.86
2018-07-16T04:02:19.865Z,28.16
2018-07-16T04:04:50.176Z,27.49
2018-07-16T04:07:23.465Z,27.10
2018-07-16T04:09:55.911Z,27.03
2018-07-16T04:12:28.025Z,26.91
2018-07-16T04:14:58.345Z,26.98
2018-07-16T04:17:32.599Z,27.04
2018-07-16T04:20:04.015Z,26.97
2018-07-16T04:22:36.161Z,27.06
2018-07-16T04:25:06.841Z,27.10
2018-07-16T04:27:38.939Z,27.23
2018-07-16T04:30:13.166Z,27.28
2018-07-16T04:32:46.019Z,27.40
2018-07-16T04:35:19.769Z,27.49
2018-07-16T04:37:51.928Z,27.60
2018-07-16T04:40:23.500Z,28.07
2018-07-16T04:42:53.857Z,28.04
2018-07-16T04:45:25.016Z,28.10
2018-07-16T04:47:57.505Z,28.36
2018-07-16T04:50:32.329Z,28.52
2018-07-16T04:53:06.127Z,28.76
2018-07-16T04:55:36.397Z,28.82
2018-07-16T04:58:08.953Z,28.63
2018-07-16T05:00:39.426Z,28.57
2018-07-16T05:03:12.648Z,28.65
2018-07-16T05:05:45.954Z,28.91
2018-07-16T05:08:16.730Z,29.30
2018-07-16T05:10:47.010Z,29.66
2018-07-16T05:13:18.656Z,29.94
2018-07-16T05:15:48.977Z,30.69
2018-07-16T05:18:19.426Z,30.88
2018-07-16T05:20:54.193Z,31.06
2018-07-16T05:23:25.276Z,31.28
2018-07-16T05:25:57.491Z,30.97
2018-07-16T05:28:27.790Z,30.59
2018-07-16T05:30:59.966Z,30.43
2018-07-16T05:33:31.174Z,30.23
2018-07-16T05:36:03.328Z,30.46
2018-07-16T05:38:35.357Z,30.85
2018-07-16T05:41:07.087Z,32.06
2018-07-16T05:43:37.407Z,33.00
2018-07-16T05:46:10.072Z,33.56
2018-07-16T05:48:42.570Z,33.61
2018-07-16T05:51:12.887Z,33.57
2018-07-16T05:53:47.000Z,32.84
2018-07-16T05:56:25.857Z,32.09
2018-07-16T05:58:59.759Z,31.47
2018-07-16T06:01:33.129Z,31.80
2018-07-16T06:04:04.019Z,31.65
2018-07-16T06:06:35.300Z,31.45
2018-07-16T06:09:08.305Z,31.52
2018-07-16T06:11:43.279Z,31.54
2018-07-16T06:14:16.243Z,31.76
2018-07-16T06:16:49.235Z,31.68
2018-07-16T06:19:20.554Z,31.41
2018-07-16T06:21:55.655Z,31.56
2018-07-16T06:24:26.225Z,31.80
2018-07-16T06:27:01.397Z,31.61
2018-07-16T06:29:35.056Z,31.49
2018-07-16T06:32:12.174Z,31.52
2018-07-16T06:37:17.213Z,31.34
2018-07-16T06:39:59.170Z,31.20
2018-07-16T06:42:39.268Z,31.19
2018-07-16T06:45:13.584Z,31.10
2018-07-16T06:47:45.806Z,31.00
2018-07-16T06:50:17.047Z,31.24
2018-07-16T06:52:48.481Z,31.18
2018-07-16T06:55:28.088Z,31.04
2018-07-16T06:58:09.452Z,31.11
2018-07-16T07:00:39.892Z,31.06
2018-07-16T07:03:11.833Z,31.01
2018-07-16T07:05:42.234Z,30.79
2018-07-16T07:08:14.753Z,30.06
2018-07-16T07:10:47.325Z,29.82
2018-07-16T07:13:22.614Z,29.37
2018-07-16T07:20:57.643Z,27.08
2018-07-16T07:33:00.769Z,27.06
2018-07-16T07:35:42.838Z,27.31
2018-07-16T07:38:27.380Z,27.49
2018-07-16T07:41:01.822Z,27.62
2018-07-16T07:46:58.120Z,28.09
2018-07-16T07:49:34.699Z,28.38
2018-07-16T07:52:23.316Z,28.39
2018-07-16T07:55:01.851Z,28.39
2018-07-16T07:57:44.467Z,28.37
2018-07-16T08:00:26.984Z,28.52
2018-07-16T08:03:06.974Z,28.58
2018-07-16T08:05:55.686Z,28.61
2018-07-16T08:08:46.630Z,28.81
2018-07-16T08:14:08.312Z,29.13
2018-07-16T08:16:46.224Z,28.94
2018-07-16T08:19:26.609Z,28.99
2018-07-16T08:25:01.406Z,29.38
2018-07-16T08:27:35.305Z,29.28
2018-07-16T08:30:23.067Z,29.30
2018-07-16T08:33:07.169Z,29.25
2018-07-16T08:36:37.861Z,29.41
2018-07-16T08:39:11.869Z,29.18
2018-07-16T08:41:49.182Z,29.19
2018-07-16T08:44:21.613Z,29.28
2018-07-16T08:49:29.761Z,29.38
2018-07-16T08:52:07.962Z,29.23
2018-07-16T08:54:43.801Z,29.38
2018-07-16T08:57:17.513Z,29.43
2018-07-16T08:59:48.513Z,29.47
2018-07-16T09:02:20.140Z,29.55
2018-07-16T09:04:50.526Z,29.33
2018-07-16T09:07:21.026Z,29.55
2018-07-16T09:09:51.832Z,29.95
2018-07-16T09:12:22.140Z,30.30
2018-07-16T09:14:56.197Z,30.78
2018-07-16T09:17:40.093Z,31.11
2018-07-16T09:20:18.477Z,31.37
2018-07-16T09:22:52.232Z,31.67
2018-07-16T09:25:27.801Z,31.79
2018-07-16T09:27:58.652Z,31.97
2018-07-16T09:30:33.052Z,31.76
2018-07-16T09:36:07.201Z,32.67
2018-07-16T09:38:59.523Z,32.93
2018-07-16T09:41:30.751Z,33.71
2018-07-16T09:44:01.290Z,34.09
2018-07-16T09:46:34.475Z,34.53
2018-07-16T09:49:08.089Z,34.87
2018-07-16T09:51:39.264Z,35.38
2018-07-16T09:54:13.076Z,35.95
2018-07-16T09:56:43.482Z,36.37
2018-07-16T09:59:18.462Z,36.63
2018-07-16T10:01:56.344Z,36.83
2018-07-16T10:04:31.072Z,36.99
2018-07-16T10:07:02.778Z,37.10
2018-07-16T10:09:36.298Z,37.45
2018-07-16T10:12:10.860Z,37.40
2018-07-16T10:14:44.532Z,37.79
2018-07-16T10:17:16.517Z,38.23
2018-07-16T10:19:50.809Z,38.52
2018-07-16T10:22:21.772Z,38.76
2018-07-16T10:24:52.144Z,38.25
2018-07-16T10:27:28.638Z,38.20
2018-07-16T10:32:41.598Z,38.50
2018-07-16T10:35:22.571Z,38.40
2018-07-16T10:41:08.381Z,38.77
2018-07-16T10:43:40.067Z,38.64
2018-07-16T10:46:13.364Z,38.89
2018-07-16T10:48:46.984Z,39.09
2018-07-16T10:51:18.698Z,38.94
2018-07-16T10:53:52.935Z,39.44
2018-07-16T10:56:26.476Z,39.36
2018-07-16T10:58:58.018Z,39.74
2018-07-16T11:01:30.673Z,39.93
2018-07-16T11:04:06.526Z,39.97
2018-07-16T11:06:40.439Z,39.85
2018-07-16T11:09:31.816Z,40.43
2018-07-16T11:12:05.020Z,40.70
2018-07-16T11:14:39.057Z,40.65
2018-07-16T11:17:10.353Z,40.43
2018-07-16T11:19:44.642Z,40.64
2018-07-16T11:22:17.021Z,40.80
2018-07-16T11:24:49.114Z,40.66
2018-07-16T11:27:25.181Z,40.74
2018-07-16T11:30:13.977Z,41.35
2018-07-16T11:32:51.001Z,41.85
2018-07-16T11:35:23.709Z,41.21
2018-07-16T11:37:55.084Z,40.73
2018-07-16T11:40:27.608Z,40.62
2018-07-16T11:43:00.441Z,40.79
2018-07-16T11:45:32.642Z,41.32
2018-07-16T11:48:19.252Z,41.59
2018-07-16T11:50:52.440Z,41.74
2018-07-16T11:53:25.236Z,42.19
2018-07-16T11:55:58.146Z,41.89
2018-07-16T11:58:30.789Z,42.13
2018-07-16T12:01:03.213Z,42.18
2018-07-16T12:03:39.265Z,42.25
2018-07-16T12:06:16.208Z,42.29
2018-07-16T12:08:49.610Z,43.10
2018-07-16T12:11:23.560Z,43.37
2018-07-16T12:13:56.489Z,43.39
2018-07-16T12:16:30.448Z,43.38
2018-07-16T12:19:03.019Z,43.10
2018-07-16T12:21:34.327Z,42.85
2018-07-16T12:24:05.746Z,42.41
2018-07-16T12:26:39.603Z,42.67
2018-07-16T12:29:19.737Z,42.85
2018-07-16T12:31:53.528Z,42.93
2018-07-16T12:34:29.204Z,43.07
2018-07-16T12:37:01.464Z,43.60
2018-07-16T12:39:34.303Z,43.60
2018-07-16T12:42:07.522Z,43.60
2018-07-16T12:44:41.835Z,43.36
2018-07-16T12:47:16.452Z,43.09
2018-07-16T12:49:50.457Z,43.30
2018-07-16T12:52:22.605Z,43.11
2018-07-16T12:54:54.131Z,43.26
2018-07-16T12:57:31.066Z,43.60
2018-07-16T13:02:41.854Z,44.32
2018-07-16T13:05:14.214Z,44.86
2018-07-16T13:07:46.705Z,45.04
2018-07-16T13:10:19.330Z,45.11
2018-07-16T13:12:54.394Z,45.09
2018-07-16T13:15:29.211Z,44.81
2018-07-16T13:21:02.078Z,44.70
2018-07-16T13:23:36.671Z,44.78
2018-07-16T13:26:18.747Z,44.91
2018-07-16T13:28:51.902Z,44.81
2018-07-16T13:31:24.025Z,44.61
2018-07-16T13:34:00.157Z,44.80
2018-07-16T13:36:32.530Z,45.08
2018-07-16T13:39:05.096Z,45.10
2018-07-16T13:41:38.821Z,44.95
2018-07-16T13:44:11.330Z,44.25
2018-07-16T13:46:42.945Z,43.66
2018-07-16T13:49:15.409Z,43.55
2018-07-16T13:51:54.988Z,43.75
2018-07-16T13:54:27.276Z,44.16
2018-07-16T13:56:59.788Z,44.24
2018-07-16T13:59:35.237Z,43.79
2018-07-16T14:02:21.931Z,43.29
2018-07-16T14:04:57.048Z,44.24
2018-07-16T14:07:29.211Z,44.94
2018-07-16T14:10:01.543Z,45.31
2018-07-16T14:12:34.478Z,45.02
2018-07-16T14:15:08.623Z,44.96
2018-07-16T14:17:40.948Z,45.44
2018-07-16T14:20:13.284Z,45.50
2018-07-16T14:22:46.712Z,45.39
2018-07-16T14:25:19.778Z,45.48
2018-07-16T14:27:51.638Z,45.60
2018-07-16T14:30:23.905Z,45.93
2018-07-16T14:32:57.401Z,45.76
2018-07-16T14:35:31.574Z,45.47
2018-07-16T14:38:03.624Z,45.47
2018-07-16T14:40:36.538Z,45.56
2018-07-16T14:43:07.824Z,45.40
2018-07-16T14:45:39.376Z,44.27
2018-07-16T14:48:12.477Z,42.78
2018-07-16T14:50:49.503Z,42.20
2018-07-16T14:53:22.433Z,41.96
2018-07-16T14:55:56.004Z,42.16
2018-07-16T14:58:29.388Z,41.96
2018-07-16T15:01:01.494Z,41.92
2018-07-16T15:03:33.240Z,41.65
2018-07-16T15:06:05.383Z,41.24
2018-07-16T15:08:39.070Z,41.63
2018-07-16T15:11:12.373Z,41.40
2018-07-16T15:13:48.396Z,41.41
2018-07-16T15:16:20.850Z,41.79
2018-07-16T15:18:55.428Z,41.12
2018-07-16T15:21:30.258Z,41.07
2018-07-16T15:24:02.965Z,40.81
2018-07-16T15:26:36.396Z,40.80
2018-07-16T15:29:10.606Z,40.63
2018-07-16T15:31:44.357Z,40.65
2018-07-16T15:34:20.066Z,40.53
2018-07-16T15:36:55.657Z,40.38
2018-07-16T15:39:27.119Z,40.08
2018-07-16T15:41:59.517Z,39.84
2018-07-16T15:44:33.839Z,39.63
2018-07-16T15:47:06.185Z,39.05
2018-07-16T15:49:39.213Z,38.80
2018-07-16T15:52:15.500Z,38.48
2018-07-16T15:54:51.726Z,38.32
2018-07-16T15:57:24.004Z,38.36
2018-07-16T15:59:57.043Z,38.32
2018-07-16T16:02:28.246Z,38.61
2018-07-16T16:05:00.373Z,38.95
2018-07-16T16:07:34.559Z,39.25
2018-07-16T16:10:07.306Z,39.61
2018-07-16T16:12:43.486Z,39.87
2018-07-16T16:15:18.574Z,40.03
2018-07-16T16:17:50.615Z,40.34
2018-07-16T16:20:25.203Z,40.78
2018-07-16T16:23:04.563Z,41.09
2018-07-16T16:25:47.437Z,41.35
2018-07-16T16:28:21.131Z,41.67
2018-07-16T16:30:53.858Z,41.91
2018-07-16T16:33:27.691Z,42.62
2018-07-16T16:36:13.513Z,42.76
2018-07-16T16:38:47.376Z,42.80
2018-07-16T16:41:24.672Z,42.88
2018-07-16T16:43:59.733Z,43.13
2018-07-16T16:46:31.216Z,43.27
2018-07-16T16:49:03.870Z,43.32
2018-07-16T16:51:38.307Z,43.24
2018-07-16T16:54:13.260Z,43.24
2018-07-16T16:56:48.881Z,43.59
2018-07-16T16:59:22.311Z,43.74
2018-07-16T17:01:59.367Z,43.54
2018-07-16T17:04:32.305Z,43.73
2018-07-16T17:07:06.416Z,44.05
2018-07-16T17:09:41.869Z,44.08
2018-07-16T17:12:13.956Z,44.09
2018-07-16T17:14:48.887Z,43.91
2018-07-16T17:17:21.591Z,43.63
2018-07-16T17:19:53.254Z,42.93
2018-07-16T17:22:26.587Z,42.00
2018-07-16T17:24:58.750Z,41.29
2018-07-16T17:27:33.430Z,40.90
2018-07-16T17:30:09.509Z,40.22
2018-07-16T17:32:55.491Z,39.57
2018-07-16T17:35:30.593Z,38.91
2018-07-16T17:38:05.532Z,38.59
2018-07-16T17:40:38.374Z,38.37
2018-07-16T17:43:13.041Z,38.07
2018-07-16T17:45:47.921Z,37.79
2018-07-16T17:48:27.505Z,37.53
2018-07-16T17:51:07.236Z,37.20
2018-07-16T17:53:52.199Z,37.24
2018-07-16T17:56:29.851Z,37.17
2018-07-16T17:59:06.569Z,36.97
2018-07-16T18:01:41.191Z,36.76
2018-07-16T18:04:16.469Z,36.66
2018-07-16T18:06:54.552Z,36.65
2018-07-16T18:09:29.866Z,36.59
2018-07-16T18:12:13.188Z,36.48
2018-07-16T18:14:48.680Z,36.55
2018-07-16T18:17:22.441Z,36.47
2018-07-16T18:19:56.516Z,36.38
2018-07-16T18:22:32.619Z,36.20
2018-07-16T18:25:09.830Z,36.02
2018-07-16T18:27:46.802Z,35.65
2018-07-16T18:30:21.473Z,35.53
2018-07-16T18:32:57.943Z,35.39
2018-07-16T18:35:33.314Z,35.39
2018-07-16T18:38:09.934Z,35.21
2018-07-16T18:41:03.585Z,35.02
2018-07-16T18:43:38.459Z,34.90
2018-07-16T18:46:12.292Z,34.73
2018-07-16T18:48:47.591Z,34.59
2018-07-16T18:51:27.301Z,34.57
2018-07-16T18:54:01.921Z,34.55
2018-07-16T18:56:38.510Z,34.44
2018-07-16T18:59:21.580Z,34.37
2018-07-16T19:01:55.708Z,34.37
2018-07-16T19:04:30.568Z,34.36
2018-07-16T19:07:03.405Z,34.31
2018-07-16T19:09:36.881Z,34.28
2018-07-16T19:12:14.021Z,34.15
2018-07-16T19:14:53.425Z,34.15
2018-07-16T19:17:26.650Z,34.02
2018-07-16T19:20:05.647Z,34.03
2018-07-16T19:22:43.108Z,34.11
2018-07-16T19:25:20.397Z,34.09
2018-07-16T19:27:53.142Z,34.02
2018-07-16T19:30:27.240Z,33.94
2018-07-16T19:32:58.534Z,33.80
2018-07-16T19:35:31.870Z,33.60
2018-07-16T19:38:07.780Z,33.41
2018-07-16T19:40:43.477Z,33.30
2018-07-16T19:43:16.469Z,33.19
2018-07-16T19:45:47.677Z,33.05
2018-07-16T19:48:24.819Z,33.10
2018-07-16T19:50:57.758Z,33.06
2018-07-16T19:53:30.603Z,33.11
2018-07-16T19:56:03.669Z,33.00
2018-07-16T19:58:37.518Z,32.75
2018-07-16T20:01:11.163Z,32.48
2018-07-16T20:03:43.803Z,32.40
2018-07-16T20:06:17.351Z,32.37
2018-07-16T20:08:59.962Z,32.38
2018-07-16T20:11:36.674Z,32.39
2018-07-16T20:14:15.565Z,32.32
2018-07-16T20:16:48.200Z,32.26
2018-07-16T20:19:23.606Z,32.15
2018-07-16T20:21:55.980Z,32.39
2018-07-16T20:24:28.309Z,32.39
2018-07-16T20:27:02.270Z,32.20
2018-07-16T20:29:33.641Z,32.03
2018-07-16T20:32:08.448Z,31.92
2018-07-16T20:34:44.461Z,31.88
2018-07-16T20:37:23.032Z,31.68
2018-07-16T20:39:55.477Z,31.74
2018-07-16T20:42:35.723Z,31.83
2018-07-16T20:45:13.622Z,31.81
2018-07-16T20:47:45.655Z,32.01
2018-07-16T20:50:20.285Z,32.03
2018-07-16T20:52:57.518Z,31.71
2018-07-16T20:55:33.299Z,31.75
2018-07-16T20:58:06.451Z,31.64
2018-07-16T21:00:40.504Z,31.57
2018-07-16T21:03:12.559Z,31.57
2018-07-16T21:05:44.803Z,31.58
2018-07-16T21:08:32.119Z,31.57
2018-07-16T21:11:10.369Z,31.55
2018-07-16T21:13:48.062Z,31.49
2018-07-16T21:16:24.163Z,31.38
2018-07-16T21:19:15.210Z,31.27
2018-07-16T21:21:54.670Z,31.17
2018-07-16T21:24:27.439Z,31.23
2018-07-16T21:28:05.462Z,31.11
2018-07-16T21:30:41.473Z,31.00
2018-07-16T21:33:15.753Z,30.84
2018-07-16T21:35:47.793Z,30.75
2018-07-16T21:38:22.483Z,30.73
2018-07-16T21:40:54.778Z,30.75
2018-07-16T21:43:27.781Z,30.64
2018-07-16T21:46:00.559Z,30.59
2018-07-16T21:48:33.607Z,30.45
2018-07-16T21:51:09.447Z,30.43
2018-07-16T21:53:43.629Z,30.52
2018-07-16T21:56:15.840Z,30.73
2018-07-16T21:58:51.619Z,30.80
2018-07-16T22:01:25.374Z,30.62
2018-07-16T22:04:01.267Z,30.55
2018-07-16T22:06:42.242Z,30.44
2018-07-16T22:09:17.353Z,30.38
2018-07-16T22:11:49.301Z,30.42
2018-07-16T22:14:39.681Z,30.25
2018-07-16T22:17:20.276Z,30.08
2018-07-16T22:19:58.400Z,30.02
2018-07-16T22:22:37.541Z,29.97
2018-07-16T22:25:12.588Z,29.99
2018-07-16T22:27:49.756Z,29.99
2018-07-16T22:30:25.171Z,29.72
2018-07-16T22:33:01.073Z,29.65
2018-07-16T22:35:32.642Z,29.64
2018-07-16T22:38:04.613Z,29.43
2018-07-16T22:40:40.151Z,29.44
2018-07-16T22:43:12.072Z,29.40
2018-07-16T22:45:45.925Z,29.35
2018-07-16T22:48:23.431Z,29.30
2018-07-16T22:51:48.704Z,29.12
2018-07-16T22:54:20.710Z,29.16
2018-07-16T22:56:59.716Z,29.13
2018-07-16T22:59:34.726Z,28.92
2018-07-16T23:02:09.182Z,28.69
2018-07-16T23:04:41.926Z,28.58
2018-07-16T23:07:16.031Z,28.66
2018-07-16T23:09:50.016Z,28.64
2018-07-16T23:12:33.849Z,28.59
2018-07-16T23:15:10.281Z,28.45
2018-07-16T23:17:45.872Z,28.34
2018-07-16T23:20:17.356Z,28.34
2018-07-16T23:22:53.782Z,28.34
2018-07-16T23:25:25.890Z,28.54
2018-07-16T23:27:58.374Z,28.65
2018-07-16T23:30:35.873Z,28.68
2018-07-16T23:33:07.312Z,28.75
2018-07-16T23:35:38.504Z,28.70
2018-07-16T23:38:08.843Z,28.82
2018-07-16T23:40:42.473Z,28.70
2018-07-16T23:43:13.828Z,28.65
2018-07-16T23:45:53.229Z,28.49
2018-07-16T23:48:27.128Z,28.32
2018-07-16T23:51:00.456Z,28.31
2018-07-16T23:53:32.435Z,28.14
2018-07-16T23:56:04.547Z,28.06
2018-07-16T23:58:40.370Z,28.16
